Time;durP1;ratioP1;P1;durP2;ratioP2;P2;SDS_P1;SDS_P2;PMS_P1;PMS_P2;Temp;Humidity;BMP_temperature;BMP_pressure;BME280_temperature;BME280_humidity;BME280_pressure;Samples;Min_cycle;Max_cycle;Signal;HPM_P1;HPM_P2
2021/06/06 00:01:42;;;;;;;13.27;10.00;;;16.20;99.90;;;16.43;77.72;102366.44;5112809;28;20066;-77
2021/06/06 00:04:16;;;;;;;11.90;9.75;;;16.10;99.90;;;16.42;77.93;102374.44;5112905;28;20453;-71
2021/06/06 00:07:01;;;;;;;15.65;10.50;;;16.10;99.90;;;16.29;78.84;102376.28;5094591;28;20066;-71
2021/06/06 00:09:28;;;;;;;16.77;10.85;;;16.00;99.90;;;16.31;79.01;102366.47;5113272;28;20035;-71
2021/06/06 00:11:59;;;;;;;15.98;10.68;;;15.90;99.90;;;16.31;79.15;102374.50;5113092;28;20550;-71
2021/06/06 00:14:33;;;;;;;16.58;11.80;;;15.90;99.90;;;16.27;79.46;102364.72;5112916;28;20047;-71
2021/06/06 00:17:06;;;;;;;15.63;11.68;;;16.00;99.90;;;16.33;79.18;102367.38;5112636;28;20052;-72
2021/06/06 00:19:36;;;;;;;16.67;11.20;;;16.00;99.90;;;16.02;79.49;102336.31;5112809;28;20047;-71
2021/06/06 00:22:06;;;;;;;14.65;11.65;;;15.80;99.90;;;16.20;79.54;102365.63;5094735;28;20051;-71
2021/06/06 00:24:37;;;;;;;14.00;12.23;;;15.90;99.90;;;16.03;80.17;102355.00;5112991;28;20126;-71
2021/06/06 00:27:06;;;;;;;14.52;12.70;;;15.70;99.90;;;16.02;79.73;102360.34;5113297;28;20052;-71
2021/06/06 00:29:36;;;;;;;16.45;12.95;;;15.70;99.90;;;15.81;80.64;102366.63;5112476;28;20493;-72
2021/06/06 00:32:05;;;;;;;15.05;11.85;;;15.50;99.90;;;15.93;80.17;102363.91;5113151;28;20044;-71
2021/06/06 00:34:33;;;;;;;17.55;12.63;;;15.60;99.90;;;15.89;80.23;102358.59;5112532;28;20075;-71
2021/06/06 00:37:02;;;;;;;15.93;12.13;;;15.50;99.90;;;15.92;79.65;102363.91;5112851;28;20039;-71
2021/06/06 00:39:35;;;;;;;14.43;11.77;;;15.60;99.90;;;15.88;79.87;102365.72;5112649;28;20043;-71
2021/06/06 00:42:05;;;;;;;15.13;12.65;;;15.50;99.90;;;15.92;79.52;102361.25;5094449;28;20070;-72
2021/06/06 00:44:36;;;;;;;19.17;12.27;;;15.60;99.90;;;15.73;79.41;102348.84;5094300;28;20081;-72
2021/06/06 00:47:08;;;;;;;14.70;12.40;;;15.50;99.90;;;15.84;79.09;102363.03;5094412;28;20047;-71
2021/06/06 00:49:37;;;;;;;16.88;12.15;;;15.50;99.90;;;15.07;79.64;102249.34;5094579;28;20127;-71
2021/06/06 00:52:07;;;;;;;15.30;12.43;;;15.50;99.90;;;15.70;79.86;102368.41;5094616;28;20051;-71
2021/06/06 00:54:43;;;;;;;13.27;11.03;;;15.40;99.90;;;15.58;79.71;102340.88;5094664;28;20067;-71
2021/06/06 00:57:17;;;;;;;16.85;11.70;;;15.50;99.90;;;15.86;79.75;102366.59;5093972;28;20301;-72
2021/06/06 01:00:07;;;;;;;13.57;11.55;;;15.50;99.90;;;15.89;79.19;102374.63;5094020;28;20043;-72
2021/06/06 01:02:40;;;;;;;14.98;11.40;;;15.60;99.90;;;15.78;79.16;102363.06;5094247;28;20047;-71
2021/06/06 01:05:13;;;;;;;15.23;11.98;;;15.50;99.90;;;15.59;80.43;102347.97;5112651;28;20110;-71
2021/06/06 01:07:43;;;;;;;16.52;11.93;;;15.40;99.90;;;15.49;80.10;102343.53;5094114;28;20097;-71
2021/06/06 01:10:15;;;;;;;17.40;12.57;;;15.30;99.90;;;15.69;80.41;102355.06;5094447;28;20040;-71
2021/06/06 01:12:49;;;;;;;15.82;12.18;;;15.40;99.90;;;15.80;80.34;102358.59;5112394;28;20127;-71
2021/06/06 01:15:24;;;;;;;15.98;11.90;;;15.40;99.90;;;15.58;80.38;102341.75;5094155;28;20378;-71
2021/06/06 01:18:01;;;;;;;14.63;11.77;;;15.40;99.90;;;15.65;80.55;102355.97;5111978;28;20039;-71
2021/06/06 01:20:54;;;;;;;14.07;12.25;;;15.30;99.90;;;15.66;79.98;102357.75;5112462;28;20051;-71
2021/06/06 01:24:00;;;;;;;14.63;12.23;;;15.30;99.90;;;15.63;80.27;102355.97;5112327;28;20069;-71
2021/06/06 01:26:38;;;;;;;14.70;11.88;;;15.30;99.90;;;15.55;80.74;102356.88;5072048;28;20051;-71
2021/06/06 01:29:29;;;;;;;13.82;11.65;;;15.20;99.90;;;15.80;80.45;102353.28;5115732;28;20047;-71
2021/06/06 01:32:05;;;;;;;18.73;12.30;;;15.40;99.90;;;15.91;79.66;102351.50;5115360;28;20165;-72
2021/06/06 01:34:36;;;;;;;20.48;12.80;;;15.50;99.90;;;15.81;79.93;102355.06;5115942;28;20416;-71
2021/06/06 01:37:09;;;;;;;16.92;13.18;;;15.40;99.90;;;15.96;79.31;102352.34;5115850;28;20055;-71
2021/06/06 01:39:47;;;;;;;13.88;12.00;;;15.60;99.90;;;15.97;79.14;102348.78;5115806;28;20060;-71
2021/06/06 01:42:23;;;;;;;;;;;15.60;99.90;;;15.98;78.82;102353.22;5097951;28;20048;-71
2021/06/06 01:45:00;;;;;;;17.90;13.43;;;15.70;99.90;;;16.06;79.09;102347.00;5093854;28;19919;-71
2021/06/06 01:47:29;;;;;;;17.38;14.25;;;15.70;99.90;;;16.08;78.39;102352.31;5095345;28;20028;-71
2021/06/06 01:50:04;;;;;;;16.42;12.93;;;15.70;99.90;;;15.88;77.93;102312.34;5095097;28;20036;-71
2021/06/06 01:52:35;;;;;;;14.45;12.02;;;15.70;99.90;;;16.09;77.91;102343.41;5095105;28;20044;-71
2021/06/06 01:55:12;;;;;;;16.98;12.98;;;15.70;99.90;;;16.11;77.11;102342.50;5093608;28;20040;-71
2021/06/06 01:57:50;;;;;;;17.65;12.90;;;15.80;99.90;;;16.09;76.58;102344.31;5093795;28;20036;-71
2021/06/06 02:00:42;;;;;;;15.50;12.55;;;15.80;99.90;;;16.04;77.19;102345.22;5093784;28;20070;-71
2021/06/06 02:03:25;;;;;;;14.27;12.75;;;15.70;99.90;;;16.03;76.96;102343.41;5093670;28;20449;-71
2021/06/06 02:05:56;;;;;;;13.45;11.95;;;15.70;99.90;;;16.02;76.64;102339.00;5093896;28;20051;-71
2021/06/06 02:08:33;;;;;;;14.70;12.13;;;15.70;99.90;;;15.90;76.36;102337.25;5093496;28;20397;-71
2021/06/06 02:11:12;;;;;;;15.05;12.70;;;15.60;99.90;;;15.94;76.68;102346.13;5093465;28;20413;-71
2021/06/06 02:13:48;;;;;;;14.60;12.27;;;15.60;99.90;;;15.91;76.82;102340.81;5093536;28;20060;-71
2021/06/06 02:16:22;;;;;;;13.45;12.05;;;15.50;99.90;;;15.96;76.66;102342.56;5093336;28;20052;-71
2021/06/06 02:18:54;;;;;;;19.05;12.10;;;15.60;99.90;;;15.96;76.42;102339.00;5093604;28;20194;-71
2021/06/06 02:21:26;;;;;;;13.30;11.40;;;15.60;99.90;;;15.93;76.17;102344.38;5093251;28;20444;-71
2021/06/06 02:23:54;;;;;;;16.15;11.98;;;15.50;99.90;;;15.88;76.54;102335.47;5093224;28;20056;-71
2021/06/06 02:26:31;;;;;;;15.57;11.88;;;15.50;99.90;;;15.97;76.13;102335.44;5093155;28;20052;-71
2021/06/06 02:29:08;;;;;;;16.17;12.60;;;15.60;99.90;;;15.93;76.20;102334.56;5093097;28;20044;-70
2021/06/06 02:31:41;;;;;;;15.27;11.88;;;15.60;99.90;;;16.04;75.73;102342.53;5093083;28;20047;-71
2021/06/06 02:34:16;;;;;;;14.10;12.00;;;15.70;99.90;;;15.54;76.00;102270.66;5094447;28;20047;-70
2021/06/06 02:36:51;;;;;;;18.67;11.77;;;15.60;99.90;;;15.80;76.51;102326.59;5094367;28;20042;-70
2021/06/06 02:39:24;;;;;;;15.23;11.85;;;15.50;99.90;;;15.88;75.99;102336.34;5092629;28;20052;-70
2021/06/06 02:42:07;;;;;;;16.55;12.13;;;15.60;99.90;;;15.34;76.04;102262.66;5094231;28;20126;-71
2021/06/06 02:44:43;;;;;;;17.17;11.77;;;15.50;99.90;;;15.65;76.35;102322.19;5092545;28;20060;-70
2021/06/06 02:47:21;;;;;;;14.77;11.10;;;15.40;99.90;;;15.68;77.61;102337.31;5092546;28;20056;-70
2021/06/06 02:49:55;;;;;;;13.52;11.43;;;15.30;99.90;;;15.71;77.91;102337.28;5092696;28;20143;-71
2021/06/06 02:52:39;;;;;;;13.77;11.20;;;15.30;99.90;;;15.62;77.94;102332.84;5092741;28;20134;-70
2021/06/06 02:55:17;;;;;;;12.52;10.98;;;15.30;99.90;;;15.60;78.66;102328.44;5092558;28;20142;-71
2021/06/06 02:57:51;;;;;;;11.77;10.45;;;15.20;99.90;;;15.57;78.34;102323.97;5092855;28;20075;-71
2021/06/06 03:00:27;;;;;;;15.82;10.90;;;15.20;99.90;;;15.53;78.15;102338.19;5092559;28;20152;-71
2021/06/06 03:03:04;;;;;;;13.20;10.10;;;15.20;99.90;;;15.49;78.24;102331.09;5092425;28;20151;-71
2021/06/06 03:05:37;;;;;;;12.43;10.73;;;15.10;99.90;;;15.35;78.64;102330.16;5092455;28;20101;-71
2021/06/06 03:08:13;;;;;;;12.45;10.57;;;15.00;99.90;;;15.44;79.01;102329.31;5092355;28;20048;-71
2021/06/06 03:10:48;;;;;;;12.30;10.60;;;15.00;99.90;;;15.16;78.37;102278.66;5093925;28;20048;-71
2021/06/06 03:13:24;;;;;;;12.07;10.35;;;15.10;99.90;;;15.48;78.33;102344.44;5092216;28;20048;-71
2021/06/06 03:15:59;;;;;;;11.45;10.27;;;15.10;99.90;;;15.52;77.90;102340.88;5093485;28;20048;-71
2021/06/06 03:18:37;;;;;;;11.32;10.20;;;15.20;99.90;;;15.62;76.87;102353.31;5093600;28;20173;-71
2021/06/06 03:21:17;;;;;;;10.68;9.68;;;15.20;99.90;;;15.49;76.24;102331.09;5093548;28;20047;-71
2021/06/06 03:23:51;;;;;;;11.07;9.57;;;15.20;99.90;;;14.83;75.83;102214.72;5092021;28;20131;-72
2021/06/06 03:26:22;;;;;;;10.82;9.73;;;15.20;99.90;;;15.58;75.81;102346.22;5093603;28;20044;-71
2021/06/06 03:28:58;;;;;;;11.43;10.10;;;15.20;99.90;;;15.45;75.35;102315.13;5091969;28;20048;-71
2021/06/06 03:31:33;;;;;;;11.50;9.38;;;15.20;99.90;;;15.53;75.75;102343.53;5092240;28;20051;-71
2021/06/06 03:34:06;;;;;;;11.98;9.45;;;15.20;99.90;;;15.46;76.45;102343.53;5091883;28;20131;-71
2021/06/06 03:36:46;;;;;;;10.23;9.05;;;15.10;99.90;;;15.58;76.35;102343.53;5091888;28;20055;-71
2021/06/06 03:39:35;;;;;;;10.48;9.35;;;15.20;99.90;;;15.52;76.32;102346.22;5091545;28;20041;-71
2021/06/06 03:42:06;;;;;;;10.63;9.23;;;15.10;99.90;;;15.56;76.88;102340.00;5091726;28;20481;-71
2021/06/06 03:44:41;;;;;;;9.77;8.70;;;15.20;99.90;;;15.48;76.49;102341.78;5091297;28;20048;-70
2021/06/06 03:47:10;;;;;;;11.63;9.05;;;15.10;99.90;;;15.37;77.26;102336.41;5091629;28;20048;-72
2021/06/06 03:49:38;;;;;;;10.00;8.43;;;15.00;99.90;;;15.31;76.87;102339.09;5091047;28;20044;-72
2021/06/06 03:52:09;;;;;;;12.48;8.38;;;14.90;99.90;;;15.41;77.63;102340.84;5091239;28;20140;-72
2021/06/06 03:54:38;;;;;;;10.38;8.07;;;15.00;99.90;;;15.39;76.72;102338.19;5091644;28;20520;-72
2021/06/06 03:57:11;;;;;;;10.48;8.18;;;15.00;99.90;;;15.45;76.91;102336.44;5091682;28;20048;-72
2021/06/06 03:59:45;;;;;;;10.43;7.68;;;15.00;99.90;;;15.55;76.69;102338.19;5091563;28;20047;-72
2021/06/06 04:02:14;;;;;;;11.02;9.10;;;15.10;99.90;;;15.59;75.97;102335.53;5092546;28;20051;-72
2021/06/06 04:04:42;;;;;;;10.70;7.97;;;15.20;99.90;;;15.46;75.44;102323.09;5091578;28;20143;-72
2021/06/06 04:07:12;;;;;;;8.70;7.80;;;15.20;99.90;;;15.63;75.15;102341.75;5092443;28;20066;-72
2021/06/06 04:09:41;;;;;;;9.20;7.28;;;15.30;99.90;;;15.66;74.98;102337.28;5091291;28;20387;-71
2021/06/06 04:12:10;;;;;;;9.65;8.27;;;15.30;99.90;;;15.58;74.64;102324.88;5092278;28;20056;-71
2021/06/06 04:14:39;;;;;;;9.13;8.20;;;15.30;99.90;;;15.77;74.58;102346.19;5091232;28;20142;-72
2021/06/06 04:17:09;;;;;;;11.27;8.57;;;15.40;99.90;;;15.81;74.64;102339.94;5091234;28;20048;-72
2021/06/06 04:19:41;;;;;;;9.93;7.72;;;15.50;99.90;;;15.93;74.27;102349.69;5091278;28;20142;-72
2021/06/06 04:22:11;;;;;;;8.52;6.78;;;15.50;99.90;;;15.96;74.45;102355.03;5091238;28;20048;-72
2021/06/06 04:24:39;;;;;;;8.05;7.22;;;15.60;99.90;;;15.86;74.54;102353.25;5091167;28;20127;-72
2021/06/06 04:27:11;;;;;;;7.90;7.15;;;15.60;99.90;;;15.80;74.52;102354.16;5092158;28;20048;-72
2021/06/06 04:29:40;;;;;;;8.23;6.80;;;15.50;99.90;;;15.79;74.25;102354.19;5091212;28;20123;-72
2021/06/06 04:32:14;;;;;;;8.23;7.13;;;15.50;99.90;;;15.73;74.27;102356.84;5092730;28;20033;-72
2021/06/06 04:34:48;;;;;;;8.13;6.65;;;15.40;99.90;;;15.18;74.41;102233.31;5091154;28;20117;-72
2021/06/06 04:37:21;;;;;;;10.07;6.57;;;15.40;99.90;;;15.86;74.81;102342.59;5090830;28;20138;-72
2021/06/06 04:39:50;;;;;;;7.82;7.03;;;15.50;99.90;;;15.97;75.41;102348.78;5091045;28;20048;-72
2021/06/06 04:42:21;;;;;;;10.07;7.40;;;15.50;99.90;;;16.00;75.47;102348.78;5092396;28;20054;-72
2021/06/06 04:44:52;;;;;;;8.75;7.28;;;15.60;99.90;;;16.01;75.66;102338.09;5090677;28;20056;-72
2021/06/06 04:47:22;;;;;;;9.75;7.97;;;15.60;99.90;;;16.15;74.84;102351.41;5091018;28;20052;-72
2021/06/06 04:49:55;;;;;;;9.25;7.97;;;15.70;99.90;;;16.12;75.40;102330.94;5090916;28;20040;-72
2021/06/06 04:52:24;;;;;;;9.95;7.63;;;15.90;99.90;;;16.31;76.16;102354.91;5091250;28;20084;-73
2021/06/06 04:54:54;;;;;;;9.45;7.78;;;15.90;99.90;;;16.20;75.66;102350.47;5091252;28;20082;-72
2021/06/06 04:57:25;;;;;;;;;;;15.90;99.90;;;16.44;75.28;102349.50;5090975;28;20519;-72
2021/06/06 04:59:53;;;;;;;8.35;7.45;;;16.10;99.90;;;16.57;74.67;102353.91;5090840;28;20453;-72
2021/06/06 05:02:23;;;;;;;8.95;7.78;;;16.20;99.90;;;16.48;74.62;102337.00;5094307;28;20128;-72
2021/06/06 05:04:58;;;;;;;10.90;7.47;;;16.20;99.90;;;16.55;74.13;102354.84;5094760;28;20051;-72
2021/06/06 05:07:28;;;;;;;9.65;7.35;;;16.30;99.90;;;16.45;74.51;102351.28;5094745;28;20051;-72
2021/06/06 05:09:58;;;;;;;8.00;7.05;;;16.20;99.90;;;16.64;74.27;102358.34;5094531;28;20076;-72
2021/06/06 05:12:30;;;;;;;9.82;6.90;;;16.30;99.90;;;16.71;74.19;102352.06;5094940;28;20059;-72
2021/06/06 05:15:00;;;;;;;7.68;5.97;;;16.30;99.90;;;16.64;74.13;102353.00;5095723;28;20493;-72
2021/06/06 05:17:30;;;;;;;7.88;5.72;;;16.40;99.90;;;16.63;73.28;102350.31;5094443;28;20515;-72
2021/06/06 05:20:01;;;;;;;7.55;5.78;;;16.40;99.90;;;16.58;73.58;102342.34;5095860;28;20513;-72
2021/06/06 05:22:31;;;;;;;9.82;6.05;;;16.40;99.90;;;16.93;71.56;102343.03;5094673;28;20401;-72
2021/06/06 05:25:03;;;;;;;7.50;5.15;;;16.60;99.90;;;16.84;70.74;102332.38;5094263;28;20101;-72
2021/06/06 05:27:33;;;;;;;7.47;4.90;;;16.70;99.90;;;16.62;70.32;102335.19;5094075;28;20123;-71
2021/06/06 05:30:01;;;;;;;6.72;5.07;;;16.50;99.90;;;16.70;69.97;102303.97;5094204;28;20048;-71
2021/06/06 05:32:31;;;;;;;7.32;4.82;;;16.60;99.90;;;17.07;69.28;102356.28;5095253;28;20040;-71
2021/06/06 05:34:59;;;;;;;6.75;4.80;;;16.80;99.90;;;17.10;68.12;102348.22;5095539;28;20036;-70
2021/06/06 05:37:27;;;;;;;6.93;4.80;;;16.90;99.90;;;17.22;67.79;102353.50;5095479;28;20051;-71
2021/06/06 05:39:55;;;;;;;8.63;4.70;;;17.00;99.90;;;17.19;68.33;102347.28;5094111;28;20060;-71
2021/06/06 05:42:23;;;;;;;6.80;4.47;;;17.00;99.90;;;17.33;67.71;102361.41;5093648;28;20048;-72
2021/06/06 05:44:53;;;;;;;5.80;4.50;;;17.10;99.90;;;17.14;67.88;102358.91;5100593;28;20055;-72
2021/06/06 05:47:21;;;;;;;7.03;4.10;;;17.00;99.90;;;17.40;68.06;102358.66;5115985;28;20043;-72
2021/06/06 05:49:50;;;;;;;6.47;4.25;;;17.10;99.90;;;17.46;66.83;102363.97;5115265;28;20309;-72
2021/06/06 05:52:25;;;;;;;6.40;4.60;;;17.30;99.90;;;17.44;65.92;102368.44;5097574;28;20044;-71
2021/06/06 05:54:53;;;;;;;4.97;4.40;;;17.20;99.90;;;17.63;65.81;102366.53;5096985;28;20094;-71
2021/06/06 05:57:21;;;;;;;5.07;4.15;;;17.40;99.90;;;17.61;66.23;102363.00;5115658;28;20405;-71
2021/06/06 05:59:49;;;;;;;7.90;4.18;;;17.40;99.90;;;17.84;65.51;102372.59;5097338;28;20054;-71
2021/06/06 06:02:17;;;;;;;7.03;4.55;;;17.60;99.90;;;17.71;64.37;102348.63;5096986;28;20043;-71
2021/06/06 06:04:45;;;;;;;4.40;3.83;;;17.70;99.90;;;18.11;64.72;102367.81;5115201;28;20048;-71
2021/06/06 06:07:15;;;;;;;6.97;4.55;;;17.90;99.90;;;18.19;64.18;102364.16;5096884;28;20051;-71
2021/06/06 06:09:44;;;;;;;5.95;4.10;;;18.00;99.90;;;18.30;63.62;102369.38;5096981;28;20505;-71
2021/06/06 06:12:12;;;;;;;5.45;4.57;;;18.10;99.90;;;18.32;63.34;102370.25;5096918;28;20538;-72
2021/06/06 06:14:40;;;;;;;6.13;4.25;;;18.20;99.90;;;18.31;63.78;102369.34;5114165;28;20043;-72
2021/06/06 06:17:08;;;;;;;5.68;4.40;;;18.10;99.90;;;18.52;63.22;102362.88;5096526;28;20055;-72
2021/06/06 06:19:36;;;;;;;4.40;4.00;;;18.30;99.90;;;18.70;63.30;102384.06;5115096;28;20043;-72
2021/06/06 06:22:06;;;;;;;4.63;4.15;;;18.40;99.90;;;18.86;62.82;102375.81;5115291;28;20066;-72
2021/06/06 06:24:36;;;;;;;5.55;3.85;;;18.60;99.90;;;18.70;61.72;102374.22;5096627;28;20047;-72
2021/06/06 06:27:05;;;;;;;4.63;4.22;;;18.50;99.90;;;18.96;60.46;102370.28;5115053;28;20048;-72
2021/06/06 06:29:51;;;;;;;4.90;3.95;;;18.70;99.90;;;18.87;59.68;102374.00;5114605;28;20051;-71
2021/06/06 06:32:29;;;;;;;4.32;3.92;;;18.80;99.90;;;18.59;59.84;102373.50;5114539;28;20063;-71
2021/06/06 06:34:57;;;;;;;4.53;4.07;;;18.50;99.90;;;18.64;60.47;102373.44;5114720;28;20051;-72
2021/06/06 06:37:25;;;;;;;5.65;4.25;;;18.40;99.90;;;18.63;59.66;102368.97;5114971;28;20055;-72
2021/06/06 06:39:55;;;;;;;4.13;3.72;;;18.40;99.90;;;18.85;60.35;102374.00;5114623;28;20039;-71
2021/06/06 06:42:26;;;;;;;4.82;4.07;;;18.50;99.90;;;18.72;58.86;102374.19;5114300;28;20564;-71
2021/06/06 06:44:54;;;;;;;4.90;4.43;;;18.60;99.90;;;18.71;59.23;102369.75;5095934;28;20059;-71
2021/06/06 06:47:27;;;;;;;7.15;4.68;;;18.50;99.90;;;18.69;60.17;102366.22;5114211;28;20400;-72
2021/06/06 06:49:58;;;;;;;5.90;4.47;;;18.40;99.90;;;18.63;60.28;102377.91;5113910;28;20039;-72
2021/06/06 06:52:27;;;;;;;7.32;4.38;;;18.40;99.90;;;18.83;59.72;102369.59;5113981;28;20109;-72
2021/06/06 06:54:59;;;;;;;6.00;4.45;;;18.50;99.90;;;19.03;59.83;102372.84;5114332;28;20126;-71
2021/06/06 06:57:27;;;;;;;5.28;4.22;;;18.80;99.90;;;19.07;60.02;102385.31;5114443;28;20069;-71
2021/06/06 06:59:58;;;;;;;5.05;4.15;;;18.80;99.90;;;19.19;58.92;102374.41;5096210;28;20142;-72
2021/06/06 07:02:26;;;;;;;;;;;19.00;99.90;;;18.84;58.65;102286.44;5114584;28;20469;-71
2021/06/06 07:04:54;;;;;;;5.00;4.50;;;19.20;99.90;;;19.35;58.91;102369.72;5113884;28;19924;-72
2021/06/06 07:07:23;;;;;;;6.95;5.20;;;19.20;99.90;;;19.44;58.23;102383.88;5095745;28;20047;-72
2021/06/06 07:09:54;;;;;;;6.00;4.65;;;19.30;99.90;;;19.62;58.85;102377.28;5095552;28;20092;-74
2021/06/06 07:12:26;;;;;;;4.88;4.30;;;19.40;99.90;;;19.83;58.89;102389.44;5095610;28;20073;-71
2021/06/06 07:14:54;;;;;;;7.07;5.10;;;19.60;99.90;;;19.94;57.09;102392.84;5095594;28;20450;-71
2021/06/06 07:17:25;;;;;;;5.53;5.03;;;19.80;99.90;;;19.28;57.00;102314.34;5113484;28;20052;-71
2021/06/06 07:19:53;;;;;;;6.10;4.57;;;19.60;99.90;;;19.36;58.17;102388.47;5095326;28;20484;-71
2021/06/06 07:22:21;;;;;;;4.68;4.20;;;19.30;99.90;;;19.19;58.08;102385.13;5113768;28;20043;-71
2021/06/06 07:24:49;;;;;;;6.53;4.22;;;19.20;99.90;;;19.16;57.74;102401.28;5113435;28;20043;-71
2021/06/06 07:27:17;;;;;;;5.13;4.72;;;19.00;99.90;;;19.09;59.18;102404.97;5114052;28;20116;-71
2021/06/06 07:29:48;;;;;;;6.95;4.60;;;18.80;99.90;;;19.01;58.53;102400.63;5113199;28;20051;-70
2021/06/06 07:32:16;;;;;;;6.47;4.90;;;18.80;99.90;;;18.96;58.30;102397.13;5113444;28;20051;-71
2021/06/06 07:34:46;;;;;;;7.90;4.97;;;18.70;99.90;;;19.25;58.20;102394.88;5113586;28;20044;-71
2021/06/06 07:37:15;;;;;;;4.93;4.43;;;19.00;99.90;;;18.99;58.01;102394.41;5113481;28;20105;-71
2021/06/06 07:39:44;;;;;;;5.53;4.93;;;18.80;99.90;;;19.07;57.63;102398.72;5113255;28;20077;-71
2021/06/06 07:42:14;;;;;;;5.95;4.70;;;18.90;99.90;;;19.25;57.71;102397.56;5113074;28;20047;-71
2021/06/06 07:44:42;;;;;;;7.63;4.90;;;19.00;99.90;;;19.27;57.65;102395.75;5113098;28;20055;-71
2021/06/06 07:47:11;;;;;;;4.93;4.30;;;19.00;99.90;;;19.51;57.71;102396.25;5113232;28;20036;-71
2021/06/06 07:49:40;;;;;;;7.13;4.75;;;19.30;99.90;;;19.68;57.03;102388.81;5094881;28;20096;-71
2021/06/06 07:52:09;;;;;;;5.10;4.22;;;19.50;99.90;;;19.94;56.06;102399.06;5094738;28;20097;-71
2021/06/06 07:54:37;;;;;;;5.70;4.53;;;19.70;99.90;;;19.60;55.92;102323.63;5094848;28;20051;-71
2021/06/06 07:57:06;;;;;;;5.35;4.30;;;19.90;99.90;;;20.24;54.84;102411.97;5113504;28;20490;-71
2021/06/06 07:59:34;;;;;;;5.70;4.18;;;20.00;99.90;;;20.30;55.10;102389.47;5113053;28;20043;-71
2021/06/06 08:02:07;;;;;;;5.97;4.50;;;20.20;99.90;;;20.56;53.85;102414.88;5094955;28;20266;-71
2021/06/06 08:04:37;;;;;;;4.95;4.20;;;20.40;99.90;;;20.72;53.49;102411.88;5094387;28;20058;-71
2021/06/06 08:07:06;;;;;;;5.18;4.47;;;20.50;99.90;;;20.88;53.21;102408.81;5094861;28;20047;-71
2021/06/06 08:09:34;;;;;;;5.60;3.80;;;20.80;99.90;;;21.16;52.09;102420.75;5112918;28;20054;-72
2021/06/06 08:12:08;;;;;;;4.45;3.55;;;21.00;99.90;;;21.28;50.45;102415.09;5112564;28;20043;-71
2021/06/06 08:14:36;;;;;;;5.80;3.75;;;21.10;99.90;;;20.88;48.87;102398.06;5112652;28;20036;-78
2021/06/06 08:17:04;;;;;;;6.10;4.00;;;20.90;99.90;;;21.09;49.42;102420.94;5094710;28;20036;-73
2021/06/06 08:19:32;;;;;;;4.90;4.40;;;20.90;99.90;;;21.12;49.43;102413.66;5112786;28;20036;-73
2021/06/06 08:22:03;;;;;;;5.65;4.15;;;21.00;99.90;;;20.71;49.44;102415.50;5112839;28;20100;-73
2021/06/06 08:24:31;;;;;;;6.97;4.30;;;20.60;99.90;;;20.55;49.07;102410.44;5112996;28;20070;-73
2021/06/06 08:27:00;;;;;;;6.57;4.00;;;20.40;99.90;;;20.83;48.06;102409.84;5112384;28;20048;-72
2021/06/06 08:29:28;;;;;;;5.88;3.58;;;20.60;99.90;;;20.88;48.53;102416.91;5112440;28;20100;-74
2021/06/06 08:31:55;;;;;;;5.25;4.20;;;20.70;99.90;;;20.78;48.44;102396.50;5112473;28;20448;-67
2021/06/06 08:34:24;;;;;;;4.38;3.90;;;20.80;99.90;;;21.05;48.98;102414.75;5112709;28;20052;-68
2021/06/06 08:36:52;;;;;;;4.15;3.85;;;20.90;99.90;;;21.22;49.23;102409.84;5095779;28;20060;-67
2021/06/06 08:39:25;;;;;;;5.35;3.47;;;21.10;99.90;;;21.04;48.42;102379.81;5098612;28;20094;-70
2021/06/06 08:42:02;;;;;;;5.32;4.05;;;21.10;99.90;;;21.27;48.36;102410.59;5098814;28;20098;-69
2021/06/06 08:44:35;;;;;;;4.90;3.90;;;21.10;99.90;;;21.56;48.19;102409.91;5117100;28;20535;-69
2021/06/06 08:47:09;;;;;;;4.55;3.78;;;21.40;99.90;;;21.81;47.09;102413.78;5116570;28;20050;-66
2021/06/06 08:49:42;;;;;;;4.28;3.38;;;21.60;99.90;;;22.04;46.18;102413.16;5116430;28;20047;-74
2021/06/06 08:52:26;;;;;;;4.43;3.30;;;21.80;99.90;;;22.09;43.87;102409.41;5116762;28;20388;-72
2021/06/06 08:55:05;;;;;;;4.95;3.60;;;22.00;99.90;;;21.88;43.77;102363.28;5116454;28;20397;-73
2021/06/06 08:57:40;;;;;;;6.15;4.00;;;22.00;99.90;;;22.32;44.53;102420.44;5116282;28;20040;-74
2021/06/06 09:00:15;;;;;;;5.43;3.30;;;22.10;99.90;;;22.26;43.28;102409.81;5116819;28;20044;-74
2021/06/06 09:02:51;;;;;;;5.63;3.50;;;22.20;99.90;;;22.55;42.30;102422.47;5116212;28;20085;-75
2021/06/06 09:05:29;;;;;;;5.38;3.70;;;22.40;99.90;;;22.75;42.44;102424.63;5098069;28;20052;-75
2021/06/06 09:07:59;;;;;;;5.13;3.33;;;22.60;99.90;;;22.78;41.96;102424.56;5116513;28;20397;-73
2021/06/06 09:10:35;;;;;;;3.60;3.30;;;22.60;99.90;;;22.96;42.05;102424.88;5116077;28;20048;-74
2021/06/06 09:13:08;;;;;;;3.78;3.10;;;22.80;99.90;;;22.85;42.09;102427.03;5116314;28;20126;-71
2021/06/06 09:15:36;;;;;;;4.05;3.63;;;22.70;99.90;;;22.78;40.41;102435.34;5097752;28;20069;-72
2021/06/06 09:18:21;;;;;;;3.60;3.13;;;22.70;99.90;;;22.82;39.82;102413.59;5115991;28;20040;-68
2021/06/06 09:20:52;;;;;;;4.00;3.10;;;22.70;99.90;;;23.05;39.68;102434.50;5097718;28;20044;-70
2021/06/06 09:23:27;;;;;;;3.40;3.10;;;22.80;99.90;;;22.71;39.20;102342.00;5115882;28;20477;-72
2021/06/06 09:26:05;;;;;;;3.00;2.80;;;23.00;99.90;;;23.34;38.69;102430.91;5116126;28;20050;-74
2021/06/06 09:28:36;;;;;;;3.25;3.05;;;23.20;99.90;;;23.47;38.07;102433.16;5116039;28;20070;-73
2021/06/06 09:31:09;;;;;;;3.33;3.10;;;23.30;99.90;;;23.52;37.26;102427.63;5115756;28;20043;-74
2021/06/06 09:33:40;;;;;;;3.28;2.70;;;23.30;99.90;;;23.76;37.85;102441.19;5115942;28;20051;-74
2021/06/06 09:36:20;;;;;;;2.90;2.70;;;23.50;99.90;;;23.84;36.41;102449.94;5097593;28;20071;-80
2021/06/06 09:38:51;;;;;;;3.23;2.93;;;23.60;99.90;;;23.41;36.67;102352.31;5115991;28;20051;-74
2021/06/06 09:41:33;;;;;;;3.72;2.97;;;23.70;99.90;;;23.63;34.86;102439.84;5115542;28;20038;-81
2021/06/06 09:44:08;;;;;;;3.75;3.30;;;23.60;99.90;;;23.66;35.49;102434.31;5115777;28;20143;-75
2021/06/06 09:46:41;;;;;;;3.17;2.70;;;23.50;99.90;;;23.81;35.60;102443.75;5115839;28;20059;-77
2021/06/06 09:49:27;;;;;;;3.60;2.53;;;23.60;99.90;;;23.83;35.62;102448.13;5114342;28;20128;-77
2021/06/06 09:51:58;;;;;;;3.33;2.97;;;23.60;99.90;;;23.86;34.86;102434.53;5097041;28;20109;-80
2021/06/06 09:54:32;;;;;;;2.95;2.75;;;23.60;99.90;;;23.15;35.52;102360.38;5115231;28;20404;-70
2021/06/06 09:57:07;;;;;;;3.05;2.47;;;23.50;99.90;;;23.70;35.00;102446.81;5115606;28;20421;-70
2021/06/06 09:59:37;;;;;;;7.85;2.80;;;23.50;99.90;;;23.75;35.09;102452.91;5115219;28;20195;-71
2021/06/06 10:02:26;;;;;;;3.33;3.00;;;23.50;99.90;;;23.84;36.21;102449.03;5097015;28;20230;-70
2021/06/06 10:05:05;;;;;;;2.80;2.50;;;23.60;99.90;;;23.74;34.95;102443.06;5096876;28;20051;-70
2021/06/06 10:07:37;;;;;;;2.80;2.60;;;23.60;99.90;;;23.89;36.54;102447.94;5114990;28;20069;-69
2021/06/06 10:10:15;;;;;;;3.80;2.70;;;23.60;99.90;;;23.93;36.59;102433.38;5115134;28;20039;-70
2021/06/06 10:12:48;;;;;;;6.10;2.67;;;23.80;99.90;;;24.03;35.67;102445.69;5115122;28;20044;-70
2021/06/06 10:15:21;;;;;;;3.70;2.83;;;23.90;99.90;;;24.05;36.34;102441.09;5114922;28;20056;-70
2021/06/06 10:17:55;;;;;;;4.13;2.83;;;23.90;99.90;;;23.99;36.11;102435.88;5115061;28;20131;-68
2021/06/06 10:20:30;;;;;;;3.58;2.80;;;23.90;99.90;;;24.09;37.55;102448.19;5115003;28;20048;-68
2021/06/06 10:23:04;;;;;;;3.63;3.00;;;23.90;99.90;;;24.09;36.52;102445.47;5114774;28;20043;-67
2021/06/06 10:25:42;;;;;;;3.63;2.92;;;23.90;99.90;;;24.22;37.46;102445.00;5115116;28;20055;-67
2021/06/06 10:28:16;;;;;;;4.93;3.17;;;24.00;99.90;;;23.86;36.92;102442.66;5096484;28;20063;-66
2021/06/06 10:30:49;;;;;;;3.25;2.92;;;23.90;99.90;;;23.81;37.85;102446.44;5114470;28;20043;-68